Terminal Aerodrome Forecast
Issued by NWS

Home | Current Version | Previous Version | Text Only | Print | Product List | Glossary On
Versions: 1 2 3 4 5 6 7 8 9 10 11 12 13 14
115
FTUS43 KEAX 230926 AAA
TAFMKC
TAF AMD
KMKC 230926Z 2309/2406 12009KT P6SM OVC030
     FM231200 17013KT P6SM -DZ VCSH OVC020
     FM231600 18015G25KT P6SM BKN025
     FM232100 18012G22KT P6SM SCT035=

USA.gov is the U.S. government's official web portal to all federal, state and local government web resources and services.